Time;durP1;ratioP1;P1;durP2;ratioP2;P2;SDS_P1;SDS_P2;PMS_P1;PMS_P2;Temp;Humidity;BMP_temperature;BMP_pressure;BME280_temperature;BME280_humidity;BME280_pressure;Samples;Min_cycle;Max_cycle;Signal;HPM_P1;HPM_P2
2021/03/06 00:02:18;;;;;;;0.70;0.70;;;3.70;99.90;;;;;;5073906;28;20184;-74
2021/03/06 00:04:44;;;;;;;0.40;0.40;;;3.90;99.90;;;;;;5073874;28;20647;-73
2021/03/06 00:07:10;;;;;;;0.35;0.35;;;3.70;99.90;;;;;;5073744;28;20609;-74
2021/03/06 00:09:36;;;;;;;1.33;1.25;;;3.50;99.90;;;;;;5074056;28;20210;-74
2021/03/06 00:12:03;;;;;;;19.42;1.52;;;3.50;99.90;;;;;;5073928;28;20493;-75
2021/03/06 00:14:30;;;;;;;0.88;0.88;;;3.30;99.90;;;;;;5073875;28;20173;-74
2021/03/06 00:16:56;;;;;;;1.13;1.13;;;3.50;99.90;;;;;;5073646;28;20201;-73
2021/03/06 00:19:21;;;;;;;0.30;0.30;;;3.70;99.90;;;;;;5073445;28;20206;-73
2021/03/06 00:21:47;;;;;;;0.65;0.65;;;3.80;99.90;;;;;;5055707;28;20174;-72
2021/03/06 00:24:12;;;;;;;0.60;0.60;;;3.90;99.90;;;;;;5073557;28;20644;-74
2021/03/06 00:26:38;;;;;;;0.50;0.50;;;3.90;99.90;;;;;;5073415;28;20292;-73
2021/03/06 00:29:04;;;;;;;1.20;1.20;;;3.70;99.90;;;;;;5073320;28;20204;-73
2021/03/06 00:31:29;;;;;;;0.50;0.50;;;3.50;99.90;;;;;;5072745;28;20166;-74
2021/03/06 00:33:55;;;;;;;0.40;0.40;;;3.50;99.90;;;;;;5073349;28;20171;-73
2021/03/06 00:36:20;;;;;;;0.50;0.50;;;3.30;99.90;;;;;;5073031;28;20183;-74
2021/03/06 00:38:46;;;;;;;0.67;0.67;;;3.50;99.90;;;;;;5073390;28;20669;-74
2021/03/06 00:41:12;;;;;;;0.90;0.90;;;3.50;99.90;;;;;;5073115;28;20170;-74
2021/03/06 00:43:37;;;;;;;2.10;2.00;;;3.30;99.90;;;;;;5073048;28;20170;-73
2021/03/06 00:46:03;;;;;;;1.08;1.02;;;3.10;99.90;;;;;;5072919;28;20186;-74
2021/03/06 00:48:28;;;;;;;3.53;1.27;;;3.40;99.90;;;;;;5072989;28;20165;-74
2021/03/06 00:50:54;;;;;;;0.40;0.40;;;3.40;99.90;;;;;;5072974;28;20272;-74
2021/03/06 00:53:20;;;;;;;0.30;0.30;;;2.90;99.90;;;;;;5072915;28;20167;-74
2021/03/06 00:55:47;;;;;;;1.43;1.33;;;2.60;99.90;;;;;;5073017;28;20900;-74
2021/03/06 00:58:12;;;;;;;0.50;0.50;;;2.70;99.90;;;;;;5072665;28;20226;-73
2021/03/06 01:00:38;;;;;;;0.30;0.30;;;2.90;99.90;;;;;;5072904;28;20250;-74
2021/03/06 01:03:04;;;;;;;0.80;0.80;;;3.00;99.90;;;;;;5072803;28;20170;-73
2021/03/06 01:05:29;;;;;;;1.75;1.70;;;3.00;99.90;;;;;;5072854;28;20519;-73
2021/03/06 01:07:55;;;;;;;0.80;0.80;;;2.80;99.90;;;;;;5054910;28;20183;-73
2021/03/06 01:10:27;;;;;;;0.93;0.93;;;2.90;99.90;;;;;;5072856;28;20516;-74
2021/03/06 01:12:53;;;;;;;0.53;0.53;;;2.90;99.90;;;;;;5072808;28;20165;-73
2021/03/06 01:15:18;;;;;;;0.40;0.40;;;2.90;99.90;;;;;;5072648;28;20245;-74
2021/03/06 01:17:44;;;;;;;1.00;1.00;;;2.90;99.90;;;;;;5072625;28;20186;-73
2021/03/06 01:20:11;;;;;;;1.00;0.90;;;2.90;99.90;;;;;;5072530;28;20202;-74
2021/03/06 01:22:36;;;;;;;0.40;0.40;;;3.10;99.90;;;;;;5072549;28;20199;-74
2021/03/06 01:25:03;;;;;;;2.10;1.90;;;3.20;99.90;;;;;;5072630;28;20171;-74
2021/03/06 01:27:29;;;;;;;0.83;0.80;;;3.00;99.90;;;;;;5072459;28;20675;-74
2021/03/06 01:29:55;;;;;;;0.83;0.83;;;3.20;99.90;;;;;;5072585;28;20241;-74
2021/03/06 01:32:20;;;;;;;1.00;1.00;;;3.10;99.90;;;;;;5072750;28;20558;-74
2021/03/06 01:34:46;;;;;;;1.17;0.97;;;3.00;99.90;;;;;;5072753;28;20610;-74
2021/03/06 01:37:12;;;;;;;6.57;2.53;;;2.80;99.90;;;;;;5072567;28;20244;-74
2021/03/06 01:39:38;;;;;;;0.77;0.77;;;2.60;99.90;;;;;;5072231;28;20214;-74
2021/03/06 01:42:04;;;;;;;0.43;0.43;;;2.70;99.90;;;;;;5074858;28;20159;-74
2021/03/06 01:44:30;;;;;;;1.10;1.10;;;2.60;99.90;;;;;;5076156;28;20181;-74
2021/03/06 01:46:55;;;;;;;2.33;2.20;;;2.70;99.90;;;;;;5058357;28;20768;-74
2021/03/06 01:49:21;;;;;;;0.30;0.30;;;2.60;99.90;;;;;;5076142;28;20154;-74
2021/03/06 01:51:46;;;;;;;0.90;0.90;;;2.80;99.90;;;;;;5076061;28;20246;-73
2021/03/06 01:54:13;;;;;;;0.30;0.30;;;2.70;99.90;;;;;;5075991;28;20640;-74
2021/03/06 01:56:39;;;;;;;0.47;0.47;;;2.40;99.90;;;;;;5076147;28;20580;-74
2021/03/06 01:59:05;;;;;;;2.13;1.37;;;2.60;99.90;;;;;;5075853;28;20345;-74
2021/03/06 02:01:30;;;;;;;2.23;2.10;;;2.50;99.90;;;;;;5076026;28;20155;-73
2021/03/06 02:03:59;;;;;;;1.13;1.03;;;2.50;99.90;;;;;;5075854;28;20180;-74
2021/03/06 02:06:25;;;;;;;0.37;0.37;;;2.30;99.90;;;;;;5075914;28;20189;-73
2021/03/06 02:08:50;;;;;;;0.40;0.40;;;2.40;99.90;;;;;;5076962;28;20166;-73
2021/03/06 02:11:42;;;;;;;0.77;0.77;;;2.30;99.90;;;;;;5078041;28;20238;-74
2021/03/06 02:14:32;;;;;;;0.50;0.50;;;2.30;99.90;;;;;;5077697;28;20171;-73
2021/03/06 02:17:06;;;;;;;0.90;0.90;;;2.40;99.90;;;;;;5076057;28;20197;-72
2021/03/06 02:20:09;;;;;;;1.43;1.43;;;2.40;99.90;;;;;;5075619;28;20206;-73
2021/03/06 02:23:10;;;;;;;0.80;0.80;;;2.30;99.90;;;;;;5075831;28;20170;-73
2021/03/06 02:25:57;;;;;;;0.90;0.90;;;2.50;99.90;;;;;;5075378;28;20241;-73
2021/03/06 02:29:00;;;;;;;0.77;0.77;;;2.40;99.90;;;;;;5075690;28;20182;-73
2021/03/06 02:31:29;;;;;;;0.40;0.40;;;2.50;99.90;;;;;;5075352;28;20154;-74
2021/03/06 02:34:04;;;;;;;0.33;0.33;;;2.40;99.90;;;;;;5075323;28;20178;-73
2021/03/06 02:36:34;;;;;;;0.47;0.47;;;2.30;99.90;;;;;;5075187;28;20264;-73
2021/03/06 02:39:02;;;;;;;0.77;0.77;;;2.00;99.90;;;;;;5075400;28;20287;-74
2021/03/06 02:41:31;;;;;;;0.60;0.60;;;2.10;99.90;;;;;;5075136;28;20151;-73
2021/03/06 02:43:58;;;;;;;1.13;1.13;;;2.20;99.90;;;;;;5075114;28;20167;-73
2021/03/06 02:46:25;;;;;;;0.90;0.90;;;2.30;99.90;;;;;;5057068;28;20185;-73
2021/03/06 02:48:53;;;;;;;0.53;0.53;;;2.40;99.90;;;;;;5075135;28;20170;-74
2021/03/06 02:51:18;;;;;;;1.53;1.50;;;2.40;99.90;;;;;;5075196;28;20159;-73
2021/03/06 02:53:44;;;;;;;0.30;0.30;;;2.40;99.90;;;;;;5074534;28;20162;-75
2021/03/06 02:56:10;;;;;;;0.40;0.40;;;2.30;99.90;;;;;;5074988;28;20519;-75
2021/03/06 02:58:35;;;;;;;0.50;0.50;;;2.50;99.90;;;;;;5074769;28;20317;-73
2021/03/06 03:01:07;;;;;;;1.23;1.23;;;2.70;99.90;;;;;;5074811;28;20175;-74
2021/03/06 03:03:57;;;;;;;0.70;0.70;;;2.60;99.90;;;;;;5056789;28;20531;-74
2021/03/06 03:06:34;;;;;;;0.80;0.80;;;2.60;99.90;;;;;;5074789;28;20240;-74
2021/03/06 03:09:00;;;;;;;1.33;1.23;;;2.40;99.90;;;;;;5074672;28;20280;-74
2021/03/06 03:11:47;;;;;;;0.30;0.30;;;2.30;99.90;;;;;;5074729;28;20966;-75
2021/03/06 03:14:18;;;;;;;0.77;0.77;;;2.20;99.90;;;;;;5074666;28;20200;-74
2021/03/06 03:16:58;;;;;;;0.53;0.53;;;2.10;99.90;;;;;;5074637;28;20588;-74
2021/03/06 03:19:28;;;;;;;0.90;0.90;;;2.00;99.90;;;;;;5074470;28;20246;-74
2021/03/06 03:21:55;;;;;;;0.93;0.70;;;2.20;99.90;;;;;;5074542;28;20159;-75
2021/03/06 03:24:22;;;;;;;0.73;0.73;;;2.30;99.90;;;;;;5074530;28;20253;-74
2021/03/06 03:26:50;;;;;;;0.53;0.53;;;2.30;99.90;;;;;;5074279;28;20221;-75
2021/03/06 03:29:16;;;;;;;0.80;0.80;;;2.30;99.90;;;;;;5074426;28;20263;-74
2021/03/06 03:31:47;;;;;;;0.40;0.40;;;2.10;99.90;;;;;;5076145;28;20143;-74
2021/03/06 03:34:14;;;;;;;0.83;0.83;;;2.10;99.90;;;;;;5085948;28;20267;-74
2021/03/06 03:36:40;;;;;;;0.70;0.70;;;1.90;99.90;;;;;;5086015;28;20182;-75
2021/03/06 03:39:08;;;;;;;0.67;0.67;;;1.80;99.90;;;;;;5086022;28;20202;-74
2021/03/06 03:41:34;;;;;;;0.70;0.70;;;1.80;99.90;;;;;;5085366;28;20208;-75
2021/03/06 03:44:04;;;;;;;0.40;0.40;;;1.70;99.90;;;;;;5085638;28;20167;-74
2021/03/06 03:46:32;;;;;;;1.10;1.10;;;1.70;99.90;;;;;;5085032;28;20534;-73
2021/03/06 03:49:00;;;;;;;0.67;0.67;;;1.60;99.90;;;;;;5085826;28;20174;-74
2021/03/06 03:51:25;;;;;;;0.50;0.50;;;1.70;99.90;;;;;;5089572;28;20166;-75
2021/03/06 03:53:51;;;;;;;1.70;0.80;;;1.70;99.90;;;;;;5091882;28;20686;-72
2021/03/06 03:56:17;;;;;;;0.93;0.93;;;1.70;99.90;;;;;;5090674;28;20269;-73
2021/03/06 03:58:46;;;;;;;0.90;0.87;;;1.80;99.90;;;;;;5086004;28;20222;-75
2021/03/06 04:01:12;;;;;;;0.50;0.50;;;2.00;99.90;;;;;;5081764;28;20495;-75
2021/03/06 04:03:39;;;;;;;1.13;1.13;;;1.90;99.90;;;;;;5073743;28;20177;-74
2021/03/06 04:06:05;;;;;;;0.40;0.40;;;1.90;99.90;;;;;;5072689;28;20190;-73
2021/03/06 04:08:30;;;;;;;2.40;2.30;;;2.00;99.90;;;;;;5074066;28;20170;-73
2021/03/06 04:10:56;;;;;;;1.47;1.37;;;2.20;99.90;;;;;;5055604;28;20189;-73
2021/03/06 04:13:22;;;;;;;0.70;0.70;;;2.40;99.90;;;;;;5073978;28;20182;-74
2021/03/06 04:15:47;;;;;;;0.60;0.60;;;2.30;99.90;;;;;;5073727;28;20191;-74
2021/03/06 04:18:13;;;;;;;1.00;1.00;;;2.30;99.90;;;;;;5073336;28;20163;-74
2021/03/06 04:20:38;;;;;;;0.70;0.70;;;2.40;99.90;;;;;;5073447;28;20170;-75
2021/03/06 04:23:04;;;;;;;0.60;0.60;;;2.30;99.90;;;;;;5073407;28;20562;-74
2021/03/06 04:25:30;;;;;;;0.93;0.83;;;2.30;99.90;;;;;;5073498;28;20540;-74
2021/03/06 04:27:56;;;;;;;11.33;1.90;;;2.40;99.90;;;;;;5073297;28;20190;-74
2021/03/06 04:30:22;;;;;;;2.20;2.10;;;2.40;99.90;;;;;;5073186;28;20174;-73
2021/03/06 04:32:48;;;;;;;1.07;1.00;;;2.40;99.90;;;;;;5073430;28;20179;-73
2021/03/06 04:35:13;;;;;;;2.00;0.90;;;2.50;99.90;;;;;;5073196;28;20162;-74
2021/03/06 04:37:40;;;;;;;0.73;0.73;;;2.40;99.90;;;;;;5055045;28;20190;-73
2021/03/06 04:40:11;;;;;;;0.70;0.70;;;2.30;99.90;;;;;;5072993;28;20206;-74
2021/03/06 04:42:37;;;;;;;0.73;0.73;;;2.40;99.90;;;;;;5073255;28;20219;-74
2021/03/06 04:45:04;;;;;;;0.70;0.70;;;2.30;99.90;;;;;;5076054;28;20621;-74
2021/03/06 04:47:30;;;;;;;1.03;1.03;;;2.30;99.90;;;;;;5074344;28;20186;-73
2021/03/06 04:49:55;;;;;;;0.70;0.70;;;2.40;99.90;;;;;;5074524;28;20245;-74
2021/03/06 04:52:21;;;;;;;0.40;0.40;;;2.40;99.90;;;;;;5072914;28;20190;-73
2021/03/06 04:54:47;;;;;;;2.67;1.13;;;2.40;99.90;;;;;;5073045;28;20162;-74
2021/03/06 04:57:13;;;;;;;1.60;1.50;;;2.40;99.90;;;;;;5072592;28;20206;-74
2021/03/06 04:59:40;;;;;;;0.30;0.30;;;2.50;99.90;;;;;;5072917;28;20202;-74
2021/03/06 05:02:05;;;;;;;0.40;0.40;;;2.60;99.90;;;;;;5072880;28;20169;-74
2021/03/06 05:04:31;;;;;;;0.80;0.80;;;2.40;99.90;;;;;;5072753;28;20163;-74
2021/03/06 05:06:57;;;;;;;0.47;0.47;;;2.30;99.90;;;;;;5072682;28;20194;-74
2021/03/06 05:09:22;;;;;;;1.20;1.20;;;2.20;99.90;;;;;;5072688;28;20253;-74
2021/03/06 05:11:48;;;;;;;0.40;0.40;;;2.20;99.90;;;;;;5072839;28;20508;-74
2021/03/06 05:14:14;;;;;;;0.50;0.50;;;2.50;99.90;;;;;;5072709;28;20186;-74
2021/03/06 05:16:39;;;;;;;0.80;0.80;;;2.60;99.90;;;;;;5074484;28;20185;-74
2021/03/06 05:19:05;;;;;;;1.00;1.00;;;2.60;99.90;;;;;;5076873;28;20240;-74
2021/03/06 05:21:31;;;;;;;0.43;0.43;;;2.60;99.90;;;;;;5076682;28;20147;-74
2021/03/06 05:23:56;;;;;;;0.40;0.40;;;2.70;99.90;;;;;;5076652;28;20170;-74
2021/03/06 05:26:22;;;;;;;0.60;0.60;;;2.50;99.90;;;;;;5076386;28;20579;-73
2021/03/06 05:28:47;;;;;;;4.53;2.50;;;2.30;99.90;;;;;;5076597;28;20583;-73
2021/03/06 05:31:13;;;;;;;0.80;0.80;;;2.10;99.90;;;;;;5076435;28;20525;-73
2021/03/06 05:33:38;;;;;;;1.23;1.17;;;2.10;99.90;;;;;;5076169;28;20190;-72
2021/03/06 05:36:04;;;;;;;0.87;0.60;;;2.10;99.90;;;;;;5076351;28;20238;-72
2021/03/06 05:38:30;;;;;;;0.50;0.50;;;2.10;99.90;;;;;;5076673;28;20203;-74
2021/03/06 05:40:56;;;;;;;0.97;0.97;;;2.00;99.90;;;;;;5076303;28;20232;-73
2021/03/06 05:43:22;;;;;;;0.40;0.40;;;2.20;99.90;;;;;;5076266;28;20162;-73
2021/03/06 05:45:48;;;;;;;1.70;1.30;;;2.10;99.90;;;;;;5076068;28;20166;-74
2021/03/06 05:48:16;;;;;;;0.50;0.50;;;2.00;99.90;;;;;;5076054;28;20610;-74
2021/03/06 05:50:42;;;;;;;1.13;1.13;;;1.90;99.90;;;;;;5076057;28;20178;-74
2021/03/06 05:53:13;;;;;;;1.47;1.37;;;2.00;99.90;;;;;;5076225;28;20182;-74
2021/03/06 05:55:41;;;;;;;0.37;0.37;;;1.80;99.90;;;;;;5076025;28;20182;-74
2021/03/06 05:58:08;;;;;;;1.23;1.23;;;1.70;99.90;;;;;;5075830;28;20978;-74
2021/03/06 06:00:35;;;;;;;0.77;0.77;;;1.70;99.90;;;;;;5075979;28;20181;-74
2021/03/06 06:03:01;;;;;;;9.53;1.60;;;1.80;99.90;;;;;;5075924;28;20170;-74
2021/03/06 06:05:26;;;;;;;1.97;0.80;;;1.80;99.90;;;;;;5075907;28;20514;-74
2021/03/06 06:07:54;;;;;;;1.83;1.70;;;1.80;99.90;;;;;;5075831;28;20233;-74
2021/03/06 06:10:20;;;;;;;1.13;1.13;;;1.70;99.90;;;;;;5075853;28;20174;-74
2021/03/06 06:12:46;;;;;;;0.90;0.83;;;1.80;99.90;;;;;;5075766;28;20173;-73
2021/03/06 06:15:12;;;;;;;0.60;0.60;;;1.90;99.90;;;;;;5075603;28;20197;-74
2021/03/06 06:17:38;;;;;;;0.77;0.77;;;1.90;99.90;;;;;;5075469;28;20675;-74
2021/03/06 06:20:05;;;;;;;1.10;1.10;;;1.90;99.90;;;;;;5075484;28;20210;-74
2021/03/06 06:22:30;;;;;;;1.73;1.63;;;1.90;99.90;;;;;;5075688;28;20161;-74
2021/03/06 06:24:56;;;;;;;0.50;0.50;;;1.80;99.90;;;;;;5075668;28;20570;-73
2021/03/06 06:27:22;;;;;;;0.53;0.53;;;1.70;99.90;;;;;;5074664;28;20186;-73
2021/03/06 06:29:49;;;;;;;12.10;2.17;;;1.70;99.90;;;;;;5075237;28;20178;-74
2021/03/06 06:32:17;;;;;;;0.60;0.60;;;1.70;99.90;;;;;;5075605;28;20158;-74
2021/03/06 06:35:00;;;;;;;0.50;0.50;;;1.70;99.90;;;;;;5057467;28;20179;-74
2021/03/06 06:37:26;;;;;;;0.57;0.57;;;1.50;99.90;;;;;;5075297;28;20191;-74
2021/03/06 06:39:51;;;;;;;0.83;0.83;;;1.70;99.90;;;;;;5075024;28;20221;-74
2021/03/06 06:42:17;;;;;;;32.10;3.50;;;1.80;99.90;;;;;;5075187;28;20261;-74
2021/03/06 06:44:56;;;;;;;0.50;0.50;;;1.90;99.90;;;;;;5075216;28;20224;-74
2021/03/06 06:47:23;;;;;;;0.93;0.93;;;1.70;99.90;;;;;;5074944;28;20186;-74
2021/03/06 06:49:51;;;;;;;0.30;0.30;;;1.60;99.90;;;;;;5074984;28;20201;-74
2021/03/06 06:52:19;;;;;;;7.90;1.43;;;1.40;99.90;;;;;;5075049;28;20212;-74
2021/03/06 06:54:54;;;;;;;0.50;0.50;;;1.50;99.90;;;;;;5075192;28;20162;-74
2021/03/06 06:57:19;;;;;;;0.77;0.77;;;1.50;99.90;;;;;;5074520;28;20214;-73
2021/03/06 07:00:20;;;;;;;1.13;1.00;;;1.50;99.90;;;;;;5074873;28;20215;-73
2021/03/06 07:03:03;;;;;;;0.40;0.40;;;1.30;99.90;;;;;;4993225;28;20184;-73
2021/03/06 07:05:33;;;;;;;0.80;0.80;;;1.50;99.90;;;;;;5067549;28;20270;-72
2021/03/06 07:08:00;;;;;;;0.43;0.43;;;1.50;99.90;;;;;;5074751;28;20194;-73
2021/03/06 07:10:34;;;;;;;1.53;1.50;;;1.70;99.90;;;;;;5074587;28;20284;-72
2021/03/06 07:13:04;;;;;;;0.80;0.80;;;1.90;99.90;;;;;;5074542;28;20648;-73
2021/03/06 07:15:31;;;;;;;0.53;0.53;;;1.90;99.90;;;;;;5074693;28;20166;-72
2021/03/06 07:17:59;;;;;;;1.03;1.03;;;1.80;99.90;;;;;;5074601;28;20614;-74
2021/03/06 07:20:36;;;;;;;1.17;1.17;;;1.70;99.90;;;;;;5076898;28;20268;-73
2021/03/06 07:23:22;;;;;;;0.50;0.50;;;1.70;99.90;;;;;;5074993;28;20158;-74
2021/03/06 07:25:59;;;;;;;1.07;1.07;;;1.60;99.90;;;;;;5074166;28;20170;-73
2021/03/06 07:28:26;;;;;;;0.63;0.63;;;1.50;99.90;;;;;;5074264;28;20162;-73
2021/03/06 07:30:54;;;;;;;2.60;1.53;;;1.50;99.90;;;;;;5074277;28;20166;-74
2021/03/06 07:33:22;;;;;;;1.50;1.47;;;1.50;99.90;;;;;;5074069;28;20512;-73
2021/03/06 07:35:48;;;;;;;1.13;1.13;;;1.70;99.90;;;;;;5073894;28;20158;-75
2021/03/06 07:38:19;;;;;;;1.23;1.17;;;1.70;99.90;;;;;;5074410;28;20171;-75
2021/03/06 07:40:59;;;;;;;0.70;0.70;;;1.80;99.90;;;;;;5074143;28;20245;-76
2021/03/06 07:43:35;;;;;;;2.80;1.60;;;2.00;99.90;;;;;;5073996;28;20703;-76
2021/03/06 07:46:02;;;;;;;3.30;1.70;;;2.10;99.90;;;;;;5074163;28;20494;-74
2021/03/06 07:48:34;;;;;;;0.63;0.63;;;2.10;99.90;;;;;;5074047;28;20159;-78
2021/03/06 07:51:00;;;;;;;0.97;0.97;;;2.00;99.90;;;;;;5074076;28;20633;-79
2021/03/06 07:53:27;;;;;;;1.00;1.00;;;2.00;99.90;;;;;;5074267;28;20637;-85
2021/03/06 07:55:53;;;;;;;0.70;0.70;;;2.20;99.90;;;;;;5074081;28;20169;-77
2021/03/06 07:58:22;;;;;;;1.40;1.40;;;2.30;99.90;;;;;;5055822;28;20230;-77
2021/03/06 08:00:59;;;;;;;5.53;2.73;;;2.50;99.90;;;;;;5066656;28;20182;-77
2021/03/06 08:05:58;;;;;;;0.73;0.73;;;2.60;99.90;;;;;;5054019;28;20159;-77
2021/03/06 08:08:33;;;;;;;1.03;1.03;;;2.80;99.90;;;;;;5036432;28;20267;-84
2021/03/06 08:11:06;;;;;;;13.30;3.60;;;3.00;99.90;;;;;;5053613;28;20228;-77
2021/03/06 08:13:41;;;;;;;0.50;0.50;;;3.10;99.90;;;;;;5053467;28;20209;-76
2021/03/06 08:16:22;;;;;;;0.63;0.63;;;3.10;99.90;;;;;;5053429;28;20190;-77
2021/03/06 08:19:21;;;;;;;2.17;1.20;;;3.10;99.90;;;;;;5053493;28;20195;-77
2021/03/06 08:21:52;;;;;;;5.07;2.33;;;3.00;99.90;;;;;;5053449;28;20163;-76
2021/03/06 08:24:21;;;;;;;1.00;1.00;;;3.30;99.90;;;;;;5053565;28;20682;-76
2021/03/06 08:27:10;;;;;;;1.70;1.60;;;3.30;99.90;;;;;;5053185;28;20688;-77
2021/03/06 08:29:44;;;;;;;0.57;0.57;;;3.40;99.90;;;;;;5053419;28;20643;-78
2021/03/06 08:32:17;;;;;;;1.75;1.60;;;3.40;99.90;;;;;;5053315;28;20167;-79
2021/03/06 08:34:57;;;;;;;0.85;0.85;;;3.60;99.90;;;;;;5035391;28;20269;-75
2021/03/06 08:37:24;;;;;;;0.57;0.57;;;3.60;99.90;;;;;;5052980;28;20182;-77
2021/03/06 08:40:34;;;;;;;0.63;0.63;;;3.60;99.90;;;;;;5052849;28;20297;-76
2021/03/06 08:42:59;;;;;;;3.77;2.07;;;3.60;99.90;;;;;;5048924;28;20645;-77
2021/03/06 08:45:29;;;;;;;1.27;0.77;;;3.80;99.90;;;;;;5053097;28;20172;-76
2021/03/06 08:47:59;;;;;;;1.95;1.85;;;3.90;99.90;;;;;;5053676;28;20183;-77
2021/03/06 08:50:27;;;;;;;1.08;1.08;;;4.10;99.90;;;;;;5052691;28;20167;-77
2021/03/06 08:53:01;;;;;;;0.85;0.85;;;4.20;99.90;;;;;;5052708;28;20174;-77
2021/03/06 08:55:29;;;;;;;0.80;0.80;;;4.40;99.90;;;;;;5053581;28;20159;-77
2021/03/06 08:57:54;;;;;;;0.70;0.70;;;4.50;99.90;;;;;;5052622;28;20222;-77
2021/03/06 09:00:25;;;;;;;1.02;0.98;;;4.60;99.90;;;;;;5034766;28;20213;-78
2021/03/06 09:03:10;;;;;;;1.00;1.00;;;4.50;99.90;;;;;;5052957;28;20167;-77
2021/03/06 09:05:36;;;;;;;1.35;1.27;;;4.70;99.90;;;;;;5053347;28;20481;-77
2021/03/06 09:08:02;;;;;;;4.80;0.88;;;5.00;99.90;;;;;;5053256;28;20274;-77
2021/03/06 09:10:31;;;;;;;5.82;1.15;;;5.00;99.90;;;;;;5052811;28;20206;-78
2021/03/06 09:13:07;;;;;;;2.50;1.90;;;5.10;99.90;;;;;;5052728;28;20638;-77
2021/03/06 09:15:34;;;;;;;0.45;0.45;;;5.10;99.90;;;;;;5052948;28;20162;-77
2021/03/06 09:18:01;;;;;;;1.80;1.60;;;5.10;99.90;;;;;;5052553;28;20183;-78
2021/03/06 09:20:29;;;;;;;0.57;0.57;;;5.20;99.90;;;;;;5052586;28;20305;-78
2021/03/06 09:22:55;;;;;;;0.80;0.80;;;5.30;99.90;;;;;;5052899;28;20213;-78
2021/03/06 09:25:48;;;;;;;0.50;0.50;;;5.20;99.90;;;;;;5052750;28;20168;-78
2021/03/06 09:28:14;;;;;;;0.50;0.50;;;5.20;99.90;;;;;;5051989;28;20221;-78
2021/03/06 09:30:41;;;;;;;0.73;0.52;;;5.30;99.90;;;;;;5052743;28;20195;-77
2021/03/06 09:33:27;;;;;;;0.38;0.38;;;5.50;99.90;;;;;;5052739;28;20223;-77
2021/03/06 09:36:04;;;;;;;3.30;1.38;;;5.60;99.90;;;;;;5052692;28;20205;-78
2021/03/06 09:38:30;;;;;;;0.98;0.90;;;5.50;99.90;;;;;;5052576;28;20519;-78
2021/03/06 09:40:56;;;;;;;0.52;0.45;;;5.60;99.90;;;;;;5052460;28;20183;-78
2021/03/06 09:43:33;;;;;;;1.50;1.40;;;5.70;99.90;;;;;;5052325;28;20646;-78
2021/03/06 09:46:01;;;;;;;0.73;0.70;;;5.80;99.90;;;;;;5052052;28;20229;-78
2021/03/06 09:48:28;;;;;;;1.00;1.00;;;6.00;99.90;;;;;;5052665;28;20182;-78
2021/03/06 09:50:57;;;;;;;1.17;1.17;;;6.00;99.90;;;;;;5052372;28;20189;-78
2021/03/06 09:53:27;;;;;;;0.30;0.30;;;5.90;99.90;;;;;;5062370;28;20160;-76
2021/03/06 09:56:11;;;;;;;0.52;0.52;;;5.90;99.90;;;;;;5048242;28;20179;-78
2021/03/06 09:58:41;;;;;;;4.40;1.80;;;5.80;99.90;;;;;;5066639;28;20211;-78
2021/03/06 10:01:25;;;;;;;0.93;0.47;;;5.70;99.90;;;;;;5052766;28;20624;-77
2021/03/06 10:03:51;;;;;;;4.40;2.05;;;5.50;99.90;;;;;;5054863;28;20626;-78
2021/03/06 10:06:22;;;;;;;0.43;0.43;;;5.60;99.90;;;;;;5056212;28;20198;-78
2021/03/06 10:08:52;;;;;;;0.20;0.20;;;5.80;99.90;;;;;;5056644;28;20274;-79
2021/03/06 10:11:20;;;;;;;4.95;0.95;;;5.80;99.90;;;;;;5055947;28;20221;-79
2021/03/06 10:13:51;;;;;;;0.55;0.55;;;5.80;99.90;;;;;;5056350;28;20167;-86
2021/03/06 10:16:17;;;;;;;1.17;1.17;;;5.80;99.90;;;;;;5038901;28;20187;-80
2021/03/06 10:18:42;;;;;;;0.63;0.63;;;5.80;99.90;;;;;;5038262;28;20213;-82
2021/03/06 10:21:30;;;;;;;0.40;0.40;;;5.90;99.90;;;;;;5038395;28;20162;-81
2021/03/06 10:24:02;;;;;;;0.30;0.30;;;5.90;99.90;;;;;;5056411;28;20710;-81
2021/03/06 10:26:28;;;;;;;2.67;1.60;;;5.80;99.90;;;;;;5056056;28;20208;-81
2021/03/06 10:29:17;;;;;;;0.43;0.32;;;5.90;99.90;;;;;;5055518;28;20163;-79
2021/03/06 10:31:43;;;;;;;5.68;3.70;;;5.90;99.90;;;;;;5055688;28;20248;-77
2021/03/06 10:34:22;;;;;;;1.10;0.75;;;5.90;99.90;;;;;;5056042;28;20221;-78
2021/03/06 10:37:14;;;;;;;1.30;1.20;;;6.10;99.90;;;;;;5055634;28;20729;-82
2021/03/06 10:40:10;;;;;;;0.30;0.30;;;6.20;99.90;;;;;;5055467;28;20213;-78
2021/03/06 10:42:53;;;;;;;2.60;1.25;;;6.20;99.90;;;;;;5038447;28;20299;-79
2021/03/06 10:45:25;;;;;;;0.47;0.47;;;6.30;99.90;;;;;;5055435;28;20167;-77
2021/03/06 10:47:53;;;;;;;0.30;0.30;;;6.30;99.90;;;;;;5055238;28;20179;-78
2021/03/06 10:50:43;;;;;;;1.02;0.93;;;6.40;99.90;;;;;;5055245;28;20602;-78
2021/03/06 10:53:20;;;;;;;1.70;1.50;;;6.60;99.90;;;;;;5036784;28;20597;-78
2021/03/06 10:55:47;;;;;;;0.40;0.40;;;6.50;99.90;;;;;;5054907;28;20162;-78
2021/03/06 10:58:14;;;;;;;0.50;0.50;;;6.50;99.90;;;;;;5054632;28;20765;-78
2021/03/06 11:00:41;;;;;;;2.72;0.60;;;6.40;99.90;;;;;;5054930;28;20181;-78
2021/03/06 11:03:11;;;;;;;0.30;0.30;;;6.60;99.90;;;;;;5055452;28;20186;-78
2021/03/06 11:05:39;;;;;;;1.15;0.90;;;6.70;99.90;;;;;;5055268;28;20147;-78
2021/03/06 11:08:26;;;;;;;0.70;0.70;;;6.70;99.90;;;;;;5055554;28;20194;-85
2021/03/06 11:10:52;;;;;;;0.60;0.60;;;6.70;99.90;;;;;;5038007;28;20175;-85
2021/03/06 11:13:19;;;;;;;0.65;0.65;;;6.80;99.90;;;;;;5037570;28;20171;-79
2021/03/06 11:15:48;;;;;;;2.15;1.02;;;6.90;99.90;;;;;;5054406;28;20155;-78
2021/03/06 11:18:14;;;;;;;0.38;0.38;;;7.00;99.90;;;;;;5054791;28;20179;-78
2021/03/06 11:20:41;;;;;;;0.40;0.40;;;7.00;99.90;;;;;;5036806;28;20179;-79
2021/03/06 11:23:07;;;;;;;0.68;0.68;;;6.90;99.90;;;;;;5054564;28;20167;-76
2021/03/06 11:25:36;;;;;;;0.45;0.45;;;6.90;99.90;;;;;;5054687;28;20159;-76
2021/03/06 11:28:04;;;;;;;0.68;0.68;;;6.90;99.90;;;;;;5054331;28;20248;-76
2021/03/06 11:30:30;;;;;;;0.90;0.90;;;6.90;99.50;;;;;;5054315;28;20653;-76
2021/03/06 11:32:56;;;;;;;0.30;0.30;;;6.90;99.00;;;;;;5036382;28;20171;-76
2021/03/06 11:35:23;;;;;;;1.00;0.52;;;7.00;98.80;;;;;;5054151;28;20200;-76
2021/03/06 11:37:50;;;;;;;0.65;0.65;;;7.00;98.70;;;;;;5054337;28;20187;-76
2021/03/06 11:40:18;;;;;;;0.40;0.40;;;6.90;98.70;;;;;;5054221;28;20218;-75
2021/03/06 11:42:44;;;;;;;0.40;0.40;;;6.90;98.20;;;;;;5054272;28;20210;-77
2021/03/06 11:45:12;;;;;;;1.00;1.00;;;6.90;98.10;;;;;;5054325;28;20235;-77
2021/03/06 11:47:37;;;;;;;0.50;0.50;;;6.80;98.20;;;;;;5053983;28;20182;-75
2021/03/06 11:50:06;;;;;;;0.50;0.50;;;6.90;97.40;;;;;;5053965;28;20542;-76
2021/03/06 11:52:31;;;;;;;0.50;0.50;;;6.80;97.50;;;;;;5053959;28;20179;-77
2021/03/06 11:54:57;;;;;;;0.75;0.75;;;6.90;97.40;;;;;;5053828;28;20170;-77
2021/03/06 11:57:24;;;;;;;1.98;1.50;;;6.90;97.60;;;;;;5053526;28;20237;-77
2021/03/06 11:59:50;;;;;;;0.80;0.80;;;6.90;98.50;;;;;;5053630;28;20217;-76
2021/03/06 12:02:15;;;;;;;0.70;0.70;;;7.00;97.00;;;;;;5053697;28;20155;-76
2021/03/06 12:04:44;;;;;;;0.95;0.95;;;6.90;96.70;;;;;;5053689;28;20563;-77
2021/03/06 12:07:10;;;;;;;0.68;0.68;;;7.00;97.10;;;;;;5053497;28;20206;-76
2021/03/06 12:09:35;;;;;;;4.93;1.30;;;7.00;96.80;;;;;;5053169;28;20167;-77
2021/03/06 12:12:01;;;;;;;3.25;1.13;;;7.10;96.00;;;;;;5053396;28;20154;-77
2021/03/06 12:14:27;;;;;;;4.20;2.30;;;7.30;95.50;;;;;;5054243;28;20167;-83
2021/03/06 12:16:52;;;;;;;5.55;1.60;;;7.40;96.00;;;;;;5035858;28;20187;-84
2021/03/06 12:19:18;;;;;;;1.45;1.15;;;7.50;96.10;;;;;;5037002;28;20195;-83
2021/03/06 12:21:44;;;;;;;1.55;1.45;;;7.50;95.70;;;;;;5056683;28;20581;-83
2021/03/06 12:24:09;;;;;;;0.38;0.38;;;7.50;95.80;;;;;;5042161;28;20187;-78
2021/03/06 12:26:35;;;;;;;0.88;0.88;;;7.60;94.50;;;;;;5064643;28;20585;-78
2021/03/06 12:29:01;;;;;;;2.03;1.83;;;7.70;93.60;;;;;;5061301;28;20196;-77
2021/03/06 12:31:27;;;;;;;0.35;0.35;;;7.70;94.60;;;;;;5057982;28;20159;-79
2021/03/06 12:33:53;;;;;;;0.65;0.60;;;7.70;95.40;;;;;;5053457;28;20348;-84
2021/03/06 12:36:19;;;;;;;1.20;1.13;;;7.70;95.20;;;;;;5053429;28;20286;-77
2021/03/06 12:38:44;;;;;;;0.50;0.50;;;7.70;94.30;;;;;;5053453;28;20646;-78
2021/03/06 12:41:10;;;;;;;0.65;0.65;;;7.70;93.60;;;;;;5053224;28;20175;-75
2021/03/06 12:43:36;;;;;;;0.95;0.73;;;7.80;93.20;;;;;;5053327;28;20163;-77
2021/03/06 12:46:02;;;;;;;0.30;0.30;;;7.70;92.80;;;;;;5053318;28;20252;-76
2021/03/06 12:48:27;;;;;;;4.35;1.60;;;7.50;93.40;;;;;;5035955;28;20171;-76
2021/03/06 12:50:53;;;;;;;1.40;1.30;;;7.60;93.60;;;;;;5052944;28;20178;-76
2021/03/06 12:53:19;;;;;;;0.80;0.80;;;7.80;92.70;;;;;;5053718;28;20220;-76
2021/03/06 12:55:45;;;;;;;0.40;0.40;;;7.80;92.80;;;;;;5053403;28;20159;-76
2021/03/06 12:58:14;;;;;;;0.50;0.50;;;7.80;93.00;;;;;;5035319;28;20215;-76
2021/03/06 13:00:39;;;;;;;0.45;0.45;;;7.60;92.80;;;;;;5055801;28;20167;-76
2021/03/06 13:03:05;;;;;;;0.40;0.40;;;7.70;93.50;;;;;;5053191;28;20688;-76
2021/03/06 13:05:31;;;;;;;0.60;0.60;;;7.80;93.10;;;;;;5053034;28;20273;-76
2021/03/06 13:07:57;;;;;;;0.57;0.57;;;7.70;93.40;;;;;;5054599;28;20653;-76
2021/03/06 13:10:24;;;;;;;0.45;0.45;;;7.60;92.20;;;;;;5055407;28;20532;-79
2021/03/06 13:12:50;;;;;;;0.55;0.55;;;7.60;92.60;;;;;;5038442;28;20213;-80